createdAt,value
2022-07-31T00:00:12.119Z,73.29
2022-07-31T00:02:41.688Z,73.87
2022-07-31T00:05:09.064Z,73.88
2022-07-31T00:07:35.906Z,73.62
2022-07-31T00:10:03.554Z,73.91
2022-07-31T00:12:30.262Z,74.04
2022-07-31T00:14:56.962Z,74.16
2022-07-31T00:17:23.643Z,73.99
2022-07-31T00:19:50.410Z,74.12
2022-07-31T00:22:16.959Z,74.17
2022-07-31T00:24:43.612Z,74.11
2022-07-31T00:27:10.377Z,74.09
2022-07-31T00:29:38.104Z,73.94
2022-07-31T00:32:04.977Z,73.97
2022-07-31T00:34:31.969Z,74.15
2022-07-31T00:36:58.654Z,74.06
2022-07-31T00:39:25.388Z,74.32
2022-07-31T00:41:52.129Z,74.46
2022-07-31T00:44:19.074Z,74.08
2022-07-31T00:46:45.637Z,73.96
2022-07-31T00:49:12.529Z,73.93
2022-07-31T00:51:40.190Z,73.98
2022-07-31T00:54:08.288Z,74.10
2022-07-31T00:56:35.309Z,74.14
2022-07-31T00:59:02.485Z,74.51
2022-07-31T01:01:29.301Z,74.48
2022-07-31T01:03:56.085Z,74.95
2022-07-31T01:06:22.901Z,74.61
2022-07-31T01:08:49.819Z,74.58
2022-07-31T01:11:30.574Z,74.68
2022-07-31T01:14:05.334Z,74.37
2022-07-31T01:16:39.875Z,74.42
2022-07-31T01:19:22.310Z,74.63
2022-07-31T01:22:34.221Z,74.72
2022-07-31T01:25:22.559Z,74.17
2022-07-31T01:28:37.243Z,74.49
2022-07-31T01:31:25.956Z,75.03
2022-07-31T01:34:01.869Z,75.25
2022-07-31T01:36:33.974Z,75.02
2022-07-31T01:39:02.618Z,74.85
2022-07-31T01:41:34.538Z,75.17
2022-07-31T01:44:04.244Z,75.40
2022-07-31T01:46:37.268Z,75.96
2022-07-31T01:49:12.413Z,75.44
2022-07-31T01:51:43.082Z,75.24
2022-07-31T01:54:11.655Z,75.44
2022-07-31T01:56:40.338Z,75.26
2022-07-31T01:59:20.118Z,75.02
2022-07-31T02:02:07.138Z,75.04
2022-07-31T02:04:37.710Z,75.31
2022-07-31T02:07:06.473Z,75.49
2022-07-31T02:09:35.177Z,75.36
2022-07-31T02:12:03.939Z,75.50
2022-07-31T02:14:36.516Z,75.61
2022-07-31T02:17:03.962Z,75.65
2022-07-31T02:19:59.809Z,75.52
2022-07-31T02:22:27.319Z,75.80
2022-07-31T02:24:54.264Z,76.07
2022-07-31T02:27:54.024Z,75.90
2022-07-31T02:30:13.406Z,75.91
2022-07-31T02:32:41.942Z,76.28
2022-07-31T02:35:09.772Z,76.00
2022-07-31T02:37:38.911Z,76.05
2022-07-31T02:40:07.914Z,75.14
2022-07-31T02:42:35.241Z,75.57
2022-07-31T02:45:02.852Z,75.92
2022-07-31T02:47:29.924Z,75.78
2022-07-31T02:49:59.548Z,75.70
2022-07-31T02:52:26.638Z,75.84
2022-07-31T02:54:53.802Z,76.36
2022-07-31T02:57:20.519Z,76.35
2022-07-31T02:59:47.226Z,76.31
2022-07-31T03:02:14.420Z,76.27
2022-07-31T03:04:43.446Z,75.99
2022-07-31T03:07:10.259Z,76.34
2022-07-31T03:09:37.187Z,76.39
2022-07-31T03:12:32.926Z,76.36
2022-07-31T03:15:01.146Z,76.36
2022-07-31T03:17:38.227Z,76.68
2022-07-31T03:20:11.287Z,76.52
2022-07-31T03:22:38.988Z,76.46
2022-07-31T03:25:06.892Z,75.48
2022-07-31T03:27:34.323Z,75.78
2022-07-31T03:30:01.190Z,75.43
2022-07-31T03:32:27.770Z,75.57
2022-07-31T03:34:54.439Z,75.79
2022-07-31T03:37:21.122Z,76.32
2022-07-31T03:39:47.923Z,75.98
2022-07-31T03:42:19.110Z,76.21
2022-07-31T03:44:48.256Z,76.31
2022-07-31T03:47:16.452Z,76.44
2022-07-31T03:49:43.897Z,76.88
2022-07-31T03:52:12.616Z,77.13
2022-07-31T03:54:40.369Z,76.95
2022-07-31T03:57:21.237Z,76.94
2022-07-31T03:59:54.725Z,76.95
2022-07-31T04:02:21.445Z,76.75
2022-07-31T04:04:53.673Z,76.61
2022-07-31T04:07:20.479Z,76.64
2022-07-31T04:09:47.265Z,76.42
2022-07-31T04:12:15.292Z,76.41
2022-07-31T04:14:42.734Z,75.74
2022-07-31T04:17:09.946Z,75.96
2022-07-31T04:19:36.643Z,75.69
2022-07-31T04:22:04.646Z,75.68
2022-07-31T04:24:32.834Z,75.12
2022-07-31T04:27:22.260Z,74.80
2022-07-31T04:29:48.998Z,75.05
2022-07-31T04:32:15.866Z,74.51
2022-07-31T04:34:48.175Z,74.19
2022-07-31T04:37:15.002Z,73.10
2022-07-31T04:39:41.711Z,73.41
2022-07-31T04:42:11.472Z,73.57
2022-07-31T04:44:38.426Z,76.18
2022-07-31T04:47:07.312Z,75.06
2022-07-31T04:49:38.057Z,76.05
2022-07-31T04:52:05.405Z,75.96
2022-07-31T04:54:32.999Z,76.89
2022-07-31T04:57:00.182Z,76.35
2022-07-31T04:59:58.200Z,78.74
2022-07-31T05:02:14.021Z,76.84
2022-07-31T05:04:40.631Z,75.73
2022-07-31T05:07:07.245Z,76.56
2022-07-31T05:09:33.876Z,78.53
2022-07-31T05:12:05.971Z,79.37
2022-07-31T05:14:33.058Z,78.90
2022-07-31T05:16:59.820Z,78.17
2022-07-31T05:19:34.186Z,77.14
2022-07-31T05:22:36.624Z,76.41
2022-07-31T05:25:22.713Z,76.08
2022-07-31T05:27:50.083Z,76.41
2022-07-31T05:30:17.028Z,75.73
2022-07-31T05:32:56.478Z,75.73
2022-07-31T05:35:23.086Z,75.24
2022-07-31T05:37:49.758Z,75.29
2022-07-31T05:40:17.934Z,74.40
2022-07-31T05:43:03.480Z,74.23
2022-07-31T05:45:48.461Z,73.56
2022-07-31T05:48:16.389Z,73.10
2022-07-31T05:50:43.877Z,74.26
2022-07-31T05:53:11.742Z,76.34
2022-07-31T05:55:56.954Z,75.91
2022-07-31T05:58:33.342Z,75.36
2022-07-31T06:01:00.756Z,74.98
2022-07-31T06:03:28.048Z,74.43
2022-07-31T06:06:03.732Z,76.89
2022-07-31T06:08:30.475Z,77.40
2022-07-31T06:10:57.375Z,75.81
2022-07-31T06:13:25.699Z,75.38
2022-07-31T06:15:53.252Z,74.69
2022-07-31T06:18:20.818Z,75.41
2022-07-31T06:20:48.003Z,75.63
2022-07-31T06:23:29.633Z,76.22
2022-07-31T06:26:13.615Z,77.36
2022-07-31T06:28:48.642Z,75.93
2022-07-31T06:31:21.841Z,76.80
2022-07-31T06:33:51.243Z,75.81
2022-07-31T06:36:22.317Z,74.68
2022-07-31T06:38:59.351Z,75.87
2022-07-31T06:41:26.117Z,74.49
2022-07-31T06:43:54.707Z,72.81
2022-07-31T06:46:48.878Z,71.71
2022-07-31T06:49:34.977Z,73.45
2022-07-31T06:52:02.225Z,73.03
2022-07-31T06:54:32.322Z,72.93
2022-07-31T06:56:59.270Z,74.88
2022-07-31T06:59:40.229Z,72.60
2022-07-31T07:02:08.453Z,74.81
2022-07-31T07:05:04.674Z,71.69
2022-07-31T07:07:22.505Z,70.65
2022-07-31T07:09:50.728Z,68.70
2022-07-31T07:12:33.463Z,67.27
2022-07-31T07:15:01.849Z,67.53
2022-07-31T07:17:29.875Z,64.80
2022-07-31T07:19:57.241Z,66.34
2022-07-31T07:22:31.806Z,64.09
2022-07-31T07:25:01.348Z,63.72
2022-07-31T07:27:28.383Z,65.64
2022-07-31T07:29:55.774Z,64.73
2022-07-31T07:32:22.364Z,60.42
2022-07-31T07:34:49.185Z,63.70
2022-07-31T07:37:47.852Z,61.62
2022-07-31T07:40:15.263Z,61.35
2022-07-31T07:42:43.348Z,60.46
2022-07-31T07:45:10.980Z,61.20
2022-07-31T07:47:53.711Z,61.70
2022-07-31T07:50:29.325Z,57.78
2022-07-31T07:53:28.982Z,57.06
2022-07-31T07:56:25.351Z,56.29
2022-07-31T07:59:21.612Z,59.58
2022-07-31T08:02:08.805Z,56.95
2022-07-31T08:04:36.569Z,58.24
2022-07-31T08:07:03.588Z,56.22
2022-07-31T08:09:38.967Z,55.88
2022-07-31T08:12:19.558Z,57.19
2022-07-31T08:15:06.771Z,55.90
2022-07-31T08:17:33.702Z,56.29
2022-07-31T08:20:00.453Z,53.00
2022-07-31T08:22:27.491Z,52.03
2022-07-31T08:24:54.320Z,55.73
2022-07-31T08:27:21.629Z,52.18
2022-07-31T08:29:48.750Z,51.33
2022-07-31T08:32:18.708Z,52.01
2022-07-31T08:35:04.086Z,51.02
2022-07-31T08:37:51.094Z,51.43
2022-07-31T08:40:19.846Z,48.03
2022-07-31T08:42:46.735Z,47.28
2022-07-31T08:45:14.101Z,47.28
2022-07-31T08:47:47.941Z,49.00
2022-07-31T08:50:20.697Z,48.39
2022-07-31T08:52:50.018Z,47.08
2022-07-31T08:55:57.027Z,46.75
2022-07-31T08:58:22.852Z,47.68
2022-07-31T09:00:51.439Z,47.85
2022-07-31T09:03:18.339Z,48.27
2022-07-31T09:05:45.024Z,47.23
2022-07-31T09:08:15.247Z,45.10
2022-07-31T09:10:49.980Z,44.94
2022-07-31T09:13:18.999Z,45.50
2022-07-31T09:15:46.960Z,45.63
2022-07-31T09:18:21.707Z,44.76
2022-07-31T09:20:56.638Z,45.44
2022-07-31T09:23:25.434Z,47.54
2022-07-31T09:25:57.500Z,45.13
2022-07-31T09:28:38.863Z,45.48
2022-07-31T09:31:07.838Z,45.32
2022-07-31T09:33:52.775Z,44.57
2022-07-31T09:36:37.978Z,42.92
2022-07-31T09:39:27.842Z,42.29
2022-07-31T09:42:16.434Z,44.32
2022-07-31T09:44:51.560Z,42.95
2022-07-31T09:47:22.890Z,41.31
2022-07-31T09:49:58.808Z,41.88
2022-07-31T09:52:28.289Z,42.37
2022-07-31T09:55:16.225Z,42.04
2022-07-31T09:57:57.553Z,40.16
2022-07-31T10:00:27.878Z,38.04
2022-07-31T10:02:57.316Z,38.75
2022-07-31T10:05:28.104Z,40.59
2022-07-31T10:08:06.079Z,42.92
2022-07-31T10:11:04.250Z,41.16
2022-07-31T10:13:46.643Z,38.30
2022-07-31T10:16:14.314Z,39.98
2022-07-31T10:18:57.265Z,40.05
2022-07-31T10:22:10.416Z,41.32
2022-07-31T10:24:50.210Z,39.57
2022-07-31T10:27:21.020Z,39.19
2022-07-31T10:29:59.827Z,38.51
2022-07-31T10:32:36.600Z,40.52
2022-07-31T10:35:31.996Z,40.38
2022-07-31T10:38:42.322Z,40.52
2022-07-31T10:41:52.349Z,39.91
2022-07-31T10:44:29.777Z,40.59
2022-07-31T10:47:18.655Z,40.04
2022-07-31T10:50:04.927Z,41.15
2022-07-31T10:53:16.382Z,40.47
2022-07-31T10:56:07.107Z,40.47
2022-07-31T10:58:57.651Z,40.77
2022-07-31T11:01:52.827Z,41.63
2022-07-31T11:04:43.068Z,40.69
2022-07-31T11:07:33.356Z,40.50
2022-07-31T11:10:17.708Z,39.59
2022-07-31T11:13:07.957Z,40.71
2022-07-31T11:16:07.595Z,39.16
2022-07-31T11:19:11.091Z,40.26
2022-07-31T11:21:40.680Z,39.79
2022-07-31T11:24:14.459Z,38.25
2022-07-31T11:26:50.458Z,38.60
2022-07-31T11:29:59.152Z,37.31
2022-07-31T11:32:25.875Z,36.11
2022-07-31T11:34:57.431Z,37.37
2022-07-31T11:37:25.606Z,36.16
2022-07-31T11:39:55.980Z,36.41
2022-07-31T11:42:28.199Z,38.98
2022-07-31T11:45:10.761Z,37.88
2022-07-31T11:48:11.169Z,38.44
2022-07-31T11:50:43.409Z,37.83
2022-07-31T11:53:12.861Z,38.94
2022-07-31T11:55:57.662Z,40.63
2022-07-31T11:58:26.359Z,40.00
2022-07-31T12:00:54.046Z,40.88
2022-07-31T12:03:25.708Z,39.99
2022-07-31T12:05:52.930Z,38.52
2022-07-31T12:08:20.420Z,39.62
2022-07-31T12:10:48.185Z,39.77
2022-07-31T12:13:16.599Z,39.17
2022-07-31T12:16:03.408Z,39.83
2022-07-31T12:18:32.667Z,39.42
2022-07-31T12:21:02.365Z,38.29
2022-07-31T12:23:45.900Z,37.34
2022-07-31T12:26:22.407Z,37.42
2022-07-31T12:29:06.126Z,38.23
2022-07-31T12:31:51.141Z,38.41
2022-07-31T12:34:27.350Z,37.38
2022-07-31T12:37:04.091Z,39.24
2022-07-31T12:39:54.775Z,37.97
2022-07-31T12:42:35.275Z,38.15
2022-07-31T12:45:18.380Z,38.47
2022-07-31T12:47:51.996Z,38.90
2022-07-31T12:50:30.116Z,41.22
2022-07-31T12:53:02.131Z,37.29
2022-07-31T12:55:30.477Z,38.06
2022-07-31T12:57:57.122Z,37.18
2022-07-31T13:00:25.410Z,37.40
2022-07-31T13:02:54.073Z,37.68
2022-07-31T13:05:21.692Z,36.78
2022-07-31T13:07:49.391Z,36.95
2022-07-31T13:10:20.854Z,37.46
2022-07-31T13:12:49.005Z,39.23
2022-07-31T13:15:20.005Z,37.99
2022-07-31T13:17:50.257Z,37.24
2022-07-31T13:20:17.796Z,38.29
2022-07-31T13:22:44.438Z,38.32
2022-07-31T13:25:11.128Z,37.97
2022-07-31T13:27:37.768Z,36.12
2022-07-31T13:30:05.472Z,39.05
2022-07-31T13:32:32.324Z,38.96
2022-07-31T13:35:26.861Z,37.99
2022-07-31T13:37:45.802Z,39.38
2022-07-31T13:40:12.491Z,39.06
2022-07-31T13:42:39.055Z,39.08
2022-07-31T13:45:08.367Z,39.11
2022-07-31T13:47:51.479Z,38.69
2022-07-31T13:50:19.465Z,38.44
2022-07-31T13:52:46.078Z,37.89
2022-07-31T13:55:12.759Z,38.40
2022-07-31T13:57:39.376Z,38.38
2022-07-31T14:00:06.704Z,39.16
2022-07-31T14:02:33.423Z,37.66
2022-07-31T14:05:00.237Z,36.95
2022-07-31T14:07:48.100Z,38.06
2022-07-31T14:10:19.862Z,38.60
2022-07-31T14:12:47.316Z,38.89
2022-07-31T14:15:13.964Z,37.79
2022-07-31T14:17:40.717Z,37.88
2022-07-31T14:20:07.863Z,38.80
2022-07-31T14:22:34.631Z,38.28
2022-07-31T14:25:01.335Z,37.75
2022-07-31T14:27:28.024Z,38.67
2022-07-31T14:29:54.703Z,38.02
2022-07-31T14:32:21.468Z,37.85
2022-07-31T14:34:49.254Z,37.50
2022-07-31T14:37:15.959Z,37.02
2022-07-31T14:39:43.153Z,36.76
2022-07-31T14:42:10.607Z,37.28
2022-07-31T14:44:37.243Z,36.11
2022-07-31T14:47:04.609Z,37.16
2022-07-31T14:50:06.692Z,38.10
2022-07-31T14:52:18.938Z,36.09
2022-07-31T14:54:45.485Z,37.04
2022-07-31T14:57:12.340Z,39.31
2022-07-31T14:59:46.645Z,36.36
2022-07-31T15:02:13.184Z,38.26
2022-07-31T15:04:39.770Z,36.05
2022-07-31T15:07:33.629Z,37.58
2022-07-31T15:09:53.048Z,34.37
2022-07-31T15:12:19.671Z,34.57
2022-07-31T15:14:46.455Z,36.31
2022-07-31T15:17:13.008Z,36.72
2022-07-31T15:19:39.738Z,35.61
2022-07-31T15:22:15.451Z,36.66
2022-07-31T15:24:48.566Z,36.56
2022-07-31T15:27:20.186Z,38.74
2022-07-31T15:30:04.457Z,36.31
2022-07-31T15:32:37.799Z,36.67
2022-07-31T15:35:07.957Z,37.86
2022-07-31T15:37:36.735Z,36.32
2022-07-31T15:40:08.596Z,37.74
2022-07-31T15:42:37.173Z,37.68
2022-07-31T15:45:04.104Z,36.91
2022-07-31T15:47:30.944Z,37.09
2022-07-31T15:49:57.542Z,36.99
2022-07-31T15:52:24.736Z,37.92
2022-07-31T15:54:52.388Z,38.91
2022-07-31T15:57:21.079Z,37.54
2022-07-31T15:59:48.749Z,37.28
2022-07-31T16:02:15.612Z,37.65
2022-07-31T16:04:51.591Z,36.77
2022-07-31T16:08:32.496Z,36.28
2022-07-31T16:10:17.921Z,34.84
2022-07-31T16:12:48.669Z,37.38
2022-07-31T16:15:18.336Z,37.80
2022-07-31T16:17:45.100Z,36.31
2022-07-31T16:20:25.467Z,37.68
2022-07-31T16:22:58.537Z,38.43
2022-07-31T16:25:26.062Z,37.43
2022-07-31T16:27:53.203Z,37.49
2022-07-31T16:30:20.748Z,38.77
2022-07-31T16:32:47.834Z,38.14
2022-07-31T16:35:14.520Z,37.59
2022-07-31T16:37:51.111Z,37.40
2022-07-31T16:40:29.324Z,38.06
2022-07-31T16:43:47.457Z,37.60
2022-07-31T16:45:51.049Z,37.33
2022-07-31T16:48:18.177Z,38.37
2022-07-31T16:50:45.850Z,36.73
2022-07-31T16:54:11.077Z,37.59
2022-07-31T16:56:06.674Z,38.71
2022-07-31T16:58:33.324Z,38.74
2022-07-31T17:01:00.221Z,38.23
2022-07-31T17:03:59.173Z,38.14
2022-07-31T17:06:13.809Z,38.28
2022-07-31T17:08:40.478Z,38.10
2022-07-31T17:11:07.125Z,38.37
2022-07-31T17:13:33.873Z,38.02
2022-07-31T17:16:00.653Z,37.58
2022-07-31T17:18:27.442Z,38.38
2022-07-31T17:20:55.801Z,38.77
2022-07-31T17:23:43.122Z,38.60
2022-07-31T17:26:21.072Z,39.12
2022-07-31T17:28:48.624Z,38.44
2022-07-31T17:31:15.262Z,38.97
2022-07-31T17:33:49.621Z,38.81
2022-07-31T17:36:26.946Z,39.29
2022-07-31T17:38:53.480Z,39.74
2022-07-31T17:41:25.122Z,39.21
2022-07-31T17:43:54.342Z,38.57
2022-07-31T17:46:34.245Z,38.74
2022-07-31T17:49:06.113Z,38.85
2022-07-31T17:51:32.913Z,38.83
2022-07-31T17:53:59.912Z,40.01
2022-07-31T17:56:27.261Z,39.80
2022-07-31T17:58:54.103Z,41.05
2022-07-31T18:01:24.383Z,39.60
2022-07-31T18:03:54.091Z,39.42
2022-07-31T18:06:20.890Z,40.15
2022-07-31T18:08:47.562Z,39.60
2022-07-31T18:11:14.304Z,40.22
2022-07-31T18:13:48.566Z,41.03
2022-07-31T18:16:21.103Z,40.22
2022-07-31T18:18:50.314Z,41.43
2022-07-31T18:21:20.535Z,41.80
2022-07-31T18:23:47.648Z,42.27
2022-07-31T18:26:14.766Z,44.26
2022-07-31T18:28:41.529Z,42.54
2022-07-31T18:31:12.835Z,42.77
2022-07-31T18:33:54.970Z,42.43
2022-07-31T18:36:21.643Z,44.26
2022-07-31T18:38:48.393Z,44.57
2022-07-31T18:41:14.956Z,43.72
2022-07-31T18:43:41.635Z,43.53
2022-07-31T18:46:08.205Z,45.87
2022-07-31T18:48:34.916Z,44.91
2022-07-31T18:51:04.817Z,46.36
2022-07-31T18:53:32.809Z,46.65
2022-07-31T18:55:59.450Z,44.28
2022-07-31T18:58:26.457Z,44.99
2022-07-31T19:00:55.125Z,46.30
2022-07-31T19:03:23.207Z,46.83
2022-07-31T19:05:49.875Z,47.14
2022-07-31T19:08:16.648Z,48.22
2022-07-31T19:10:43.209Z,48.35
2022-07-31T19:13:19.003Z,49.57
2022-07-31T19:15:50.939Z,49.08
2022-07-31T19:18:17.830Z,49.56
2022-07-31T19:21:00.295Z,50.47
2022-07-31T19:23:35.926Z,50.44
2022-07-31T19:26:04.735Z,51.07
2022-07-31T19:28:32.772Z,51.83
2022-07-31T19:30:59.796Z,51.44
2022-07-31T19:33:26.887Z,50.96
2022-07-31T19:36:00.307Z,51.34
2022-07-31T19:38:29.981Z,51.46
2022-07-31T19:40:57.107Z,51.45
2022-07-31T19:43:23.916Z,51.82
2022-07-31T19:45:57.712Z,51.94
2022-07-31T19:48:29.068Z,52.66
2022-07-31T19:50:55.711Z,53.17
2022-07-31T19:53:22.413Z,53.55
2022-07-31T19:55:49.149Z,54.31
2022-07-31T19:58:18.350Z,55.01
2022-07-31T20:00:45.065Z,55.41
2022-07-31T20:03:32.437Z,55.80
2022-07-31T20:06:02.243Z,55.37
2022-07-31T20:08:34.814Z,55.63
2022-07-31T20:11:07.275Z,55.76
2022-07-31T20:13:42.720Z,56.25
2022-07-31T20:16:37.259Z,56.26
2022-07-31T20:19:07.579Z,54.72
2022-07-31T20:21:35.009Z,55.36
2022-07-31T20:27:02.533Z,56.19
2022-07-31T20:29:44.081Z,56.48
2022-07-31T20:32:16.559Z,56.16
2022-07-31T20:34:48.499Z,56.60
2022-07-31T20:37:22.619Z,56.76
2022-07-31T20:39:52.058Z,58.24
2022-07-31T20:42:18.776Z,57.87
2022-07-31T20:44:48.539Z,57.32
2022-07-31T20:47:24.702Z,56.91
2022-07-31T20:49:52.620Z,56.15
2022-07-31T20:52:19.645Z,55.55
2022-07-31T20:54:59.460Z,55.97
2022-07-31T20:57:31.668Z,55.74
2022-07-31T21:00:01.704Z,54.98
2022-07-31T21:02:32.395Z,56.85
2022-07-31T21:04:59.090Z,57.03
2022-07-31T21:07:38.054Z,57.15
2022-07-31T21:10:08.024Z,57.35
2022-07-31T21:12:35.411Z,57.11
2022-07-31T21:15:05.059Z,57.21
2022-07-31T21:18:01.544Z,57.95
2022-07-31T21:20:32.899Z,58.12
2022-07-31T21:23:23.769Z,57.24
2022-07-31T21:25:56.548Z,56.89
2022-07-31T21:28:37.400Z,57.30
2022-07-31T21:31:07.533Z,58.10
2022-07-31T21:33:41.295Z,59.13
2022-07-31T21:36:12.891Z,59.58
2022-07-31T21:38:43.167Z,59.24
2022-07-31T21:41:10.189Z,60.18
2022-07-31T21:43:58.672Z,60.81
2022-07-31T21:46:44.010Z,59.87
2022-07-31T21:49:18.110Z,59.51
2022-07-31T21:51:48.483Z,58.36
2022-07-31T21:54:15.137Z,57.61
2022-07-31T21:56:44.749Z,57.82
2022-07-31T21:59:11.535Z,57.53
2022-07-31T22:01:41.590Z,57.66
2022-07-31T22:04:34.494Z,58.99
2022-07-31T22:07:01.312Z,59.96
2022-07-31T22:09:28.124Z,60.54
2022-07-31T22:12:05.694Z,59.40
2022-07-31T22:14:32.645Z,60.25
2022-07-31T22:16:59.199Z,60.56
2022-07-31T22:19:26.151Z,60.94
2022-07-31T22:21:53.304Z,60.82
2022-07-31T22:24:20.039Z,64.29
2022-07-31T22:26:47.602Z,63.73
2022-07-31T22:29:18.382Z,64.65
2022-07-31T22:31:49.828Z,64.29
2022-07-31T22:34:37.198Z,63.94
2022-07-31T22:37:05.355Z,63.13
2022-07-31T22:39:32.342Z,63.29
2022-07-31T22:42:00.313Z,63.13
2022-07-31T22:44:27.333Z,63.34
2022-07-31T22:46:56.167Z,63.19
2022-07-31T22:49:22.819Z,63.43
2022-07-31T22:51:49.521Z,63.23
2022-07-31T22:54:16.215Z,63.30
2022-07-31T22:56:42.809Z,62.38
2022-07-31T22:59:09.360Z,63.20
2022-07-31T23:01:36.133Z,65.75
2022-07-31T23:04:04.076Z,67.05
2022-07-31T23:06:32.744Z,67.14
2022-07-31T23:08:59.983Z,67.61
2022-07-31T23:11:26.688Z,68.45
2022-07-31T23:13:54.794Z,69.65
2022-07-31T23:16:21.586Z,70.24
2022-07-31T23:18:49.923Z,71.42
2022-07-31T23:21:17.238Z,72.17
2022-07-31T23:23:48.004Z,72.81
2022-07-31T23:26:19.492Z,74.04
2022-07-31T23:28:46.845Z,73.29
2022-07-31T23:31:14.303Z,73.17
2022-07-31T23:33:41.163Z,73.56
2022-07-31T23:36:08.045Z,72.79
2022-07-31T23:38:34.676Z,72.73
2022-07-31T23:41:01.464Z,72.89
2022-07-31T23:43:28.178Z,71.61
2022-07-31T23:45:55.052Z,71.54
2022-07-31T23:48:21.785Z,70.95
2022-07-31T23:50:52.159Z,71.11
2022-07-31T23:53:18.758Z,71.65
2022-07-31T23:55:45.443Z,72.46
2022-07-31T23:58:12.098Z,73.15
